Time;durP1;ratioP1;P1;durP2;ratioP2;P2;SDS_P1;SDS_P2;PMS_P1;PMS_P2;Temp;Humidity;BMP_temperature;BMP_pressure;BME280_temperature;BME280_humidity;BME280_pressure;Samples;Min_cycle;Max_cycle;Signal;HPM_P1;HPM_P2
2021/08/10 00:00:23;;;;;;;17.00;15.35;;;;;;;23.27;77.96;99806.66;5022223;28;20148;-59
2021/08/10 00:03:09;;;;;;;22.95;15.55;;;;;;;23.30;77.90;99804.72;5020543;28;20026;-58
2021/08/10 00:05:55;;;;;;;18.58;14.73;;;;;;;23.26;77.59;99801.47;5017362;28;20423;-62
2021/08/10 00:08:41;;;;;;;19.17;16.77;;;;;;;23.21;77.82;99791.22;5019998;28;20362;-58
2021/08/10 00:11:27;;;;;;;18.52;16.73;;;;;;;23.22;78.06;99789.44;5022591;28;20594;-59
2021/08/10 00:14:13;;;;;;;17.88;16.02;;;;;;;23.21;78.69;99782.47;5022537;28;20060;-57
2021/08/10 00:16:59;;;;;;;17.08;15.38;;;;;;;23.19;78.50;99785.22;5020997;28;20315;-57
2021/08/10 00:19:45;;;;;;;19.67;17.25;;;;;;;23.07;78.96;99789.56;5021315;28;20527;-57
2021/08/10 00:22:31;;;;;;;18.63;16.73;;;;;;;23.07;78.61;99788.69;5021415;28;20326;-58
2021/08/10 00:25:16;;;;;;;18.20;16.48;;;;;;;23.05;79.13;99788.81;5021073;28;20341;-58
2021/08/10 00:28:03;;;;;;;18.20;16.27;;;;;;;23.05;79.09;99786.19;5020877;28;20105;-58
2021/08/10 00:30:49;;;;;;;17.02;15.30;;;;;;;22.93;80.07;99790.56;5022403;28;20029;-57
2021/08/10 00:33:35;;;;;;;18.20;16.40;;;;;;;22.88;79.72;99797.94;5022411;28;20026;-57
2021/08/10 00:36:21;;;;;;;20.23;16.55;;;;;;;22.88;79.86;99799.75;5019550;28;20026;-57
2021/08/10 00:39:07;;;;;;;16.83;14.98;;;;;;;22.87;80.02;99793.63;5019159;28;20037;-58
2021/08/10 00:41:53;;;;;;;16.95;15.15;;;;;;;22.62;80.88;99785.72;5019011;28;20038;-57
2021/08/10 00:44:39;;;;;;;14.88;13.10;;;;;;;22.69;80.95;99787.84;5019522;28;20342;-58
2021/08/10 00:47:25;;;;;;;16.80;15.13;;;;;;;22.85;80.42;99784.97;5019291;28;20029;-57
2021/08/10 00:50:11;;;;;;;17.27;15.20;;;;;;;22.86;80.07;99784.03;5018042;28;20222;-57
2021/08/10 00:52:57;;;;;;;16.17;14.68;;;;;;;22.79;80.54;99795.09;5020461;28;20089;-59
2021/08/10 00:55:43;;;;;;;19.30;15.40;;;;;;;22.81;80.19;99782.66;5022437;28;20515;-58
2021/08/10 00:58:31;;;;;;;17.60;15.77;;;;;;;22.79;80.22;99793.34;5011088;28;20021;-59
2021/08/10 01:01:16;;;;;;;17.00;14.73;;;;;;;22.85;80.03;99795.53;5020951;28;20057;-59
2021/08/10 01:04:02;;;;;;;17.05;15.43;;;;;;;22.83;79.94;99796.59;5021897;28;20057;-58
2021/08/10 01:07:07;;;;;;;15.95;14.50;;;;;;;22.86;80.14;99801.66;5021730;28;20041;-58
2021/08/10 01:10:20;;;;;;;16.65;14.93;;;;;;;22.52;80.79;99745.97;5002712;28;20285;-58
2021/08/10 01:13:18;;;;;;;17.33;15.43;;;;;;;22.45;80.85;99742.91;5017443;28;20271;-57
2021/08/10 01:16:16;;;;;;;18.02;16.10;;;;;;;22.62;81.40;99789.25;5021675;28;20033;-59
2021/08/10 01:19:26;;;;;;;18.67;16.50;;;;;;;22.44;82.45;99786.06;5021024;28;20026;-58
2021/08/10 01:22:16;;;;;;;18.38;15.68;;;;;;;22.22;81.75;99736.56;5020436;28;20084;-57
2021/08/10 01:25:17;;;;;;;17.02;15.32;;;;;;;22.38;81.37;99744.28;5020608;28;20049;-58
2021/08/10 01:28:31;;;;;;;18.25;14.82;;;;;;;22.65;81.29;99785.53;5019200;28;20041;-58
2021/08/10 01:31:22;;;;;;;16.75;14.98;;;;;;;22.67;80.68;99787.09;5016605;28;20037;-58
2021/08/10 01:34:32;;;;;;;16.80;14.95;;;;;;;22.64;80.86;99797.03;5022025;28;20022;-58
2021/08/10 01:37:25;;;;;;;17.38;15.38;;;;;;;22.66;80.71;99793.34;5021777;28;20034;-59
2021/08/10 01:40:13;;;;;;;16.55;14.85;;;;;;;22.62;80.78;99778.69;5019755;28;20270;-59
2021/08/10 01:43:02;;;;;;;17.00;15.48;;;;;;;22.48;81.32;99755.88;5019402;28;20044;-58
2021/08/10 01:45:50;;;;;;;17.70;16.00;;;;;;;22.53;81.52;99768.75;5018217;28;20382;-58
2021/08/10 01:48:38;;;;;;;17.05;15.23;;;;;;;22.54;80.98;99771.28;5018075;28;20327;-58
2021/08/10 01:51:27;;;;;;;16.75;15.23;;;;;;;22.29;81.30;99729.03;5019477;28;20037;-58
2021/08/10 01:54:14;;;;;;;18.55;16.63;;;;;;;22.54;81.35;99776.56;5018644;28;20038;-57
2021/08/10 01:57:01;;;;;;;17.83;16.05;;;;;;;22.47;81.12;99764.75;5020374;28;20093;-57
2021/08/10 01:59:51;;;;;;;18.75;16.13;;;;;;;22.23;81.48;99722.41;5021351;28;20057;-58
2021/08/10 02:02:38;;;;;;;17.33;15.63;;;;;;;22.51;81.77;99779.41;5020621;28;20021;-58
2021/08/10 02:05:24;;;;;;;19.52;16.60;;;;;;;22.51;81.45;99768.84;5022571;28;20040;-59
2021/08/10 02:08:13;;;;;;;16.30;14.90;;;;;;;22.27;81.10;99726.53;5020105;28;20021;-58
2021/08/10 02:11:00;;;;;;;21.48;17.15;;;;;;;22.49;81.37;99768.13;5019271;28;20049;-58
2021/08/10 02:13:47;;;;;;;18.10;16.20;;;;;;;22.54;81.42;99773.09;5017597;28;20049;-59
2021/08/10 02:16:33;;;;;;;18.13;15.23;;;;;;;22.56;81.34;99773.81;5019772;28;20235;-59
2021/08/10 02:19:19;;;;;;;22.27;16.60;;;;;;;22.53;81.27;99780.16;5019396;28;20036;-59
2021/08/10 02:22:09;;;;;;;17.35;15.65;;;;;;;22.26;81.48;99726.63;5021197;28;20021;-59
2021/08/10 02:25:00;;;;;;;20.45;18.13;;;;;;;22.39;81.60;99764.47;5020878;28;20030;-58
2021/08/10 02:27:52;;;;;;;22.45;18.98;;;;;;;22.01;82.12;99730.97;5020786;28;20032;-58
2021/08/10 02:30:42;;;;;;;23.80;20.35;;;;;;;21.96;82.51;99722.50;5010584;28;20030;-58
2021/08/10 02:33:29;;;;;;;23.00;18.60;;;;;;;22.32;81.97;99760.50;5020971;28;20226;-57
2021/08/10 02:36:17;;;;;;;21.40;19.13;;;;;;;22.41;81.86;99765.19;5021547;28;20029;-57
2021/08/10 02:39:06;;;;;;;19.45;17.10;;;;;;;22.24;81.24;99722.28;5017019;28;20039;-58
2021/08/10 02:41:55;;;;;;;24.58;18.63;;;;;;;22.47;81.41;99775.31;5024669;28;20021;-58
2021/08/10 02:44:43;;;;;;;22.63;16.98;;;;;;;22.57;80.93;99773.72;5004789;28;20061;-58
2021/08/10 02:47:29;;;;;;;26.02;21.95;;;;;;;22.52;81.09;99773.19;5005268;28;20210;-58
2021/08/10 02:50:15;;;;;;;24.20;21.27;;;;;;;22.56;80.79;99769.38;5006549;28;20026;-58
2021/08/10 02:53:05;;;;;;;37.08;30.50;;;;;;;22.40;80.95;99769.63;5024043;28;20218;-57
2021/08/10 02:56:12;;;;;;;34.55;27.17;;;;;;;22.28;80.96;99728.22;5023722;28;20029;-57
2021/08/10 02:59:26;;;;;;;28.73;24.92;;;;;;;22.41;80.36;99734.34;5024128;28;20220;-58
2021/08/10 03:02:18;;;;;;;27.33;21.65;;;;;;;22.72;80.76;99792.06;5024427;28;20279;-59
2021/08/10 03:05:11;;;;;;;31.58;23.15;;;;;;;22.69;80.92;99782.56;5024461;28;20211;-58
2021/08/10 03:08:00;;;;;;;31.77;23.92;;;;;;;22.70;81.22;99781.63;5023791;28;20080;-59
2021/08/10 03:10:48;;;;;;;22.90;20.55;;;;;;;22.72;80.54;99779.72;5022254;28;20061;-58
2021/08/10 03:13:37;;;;;;;24.45;20.83;;;;;;;22.77;80.48;99779.38;5021919;28;20278;-59
2021/08/10 03:16:25;;;;;;;26.98;22.55;;;;;;;22.73;81.47;99773.47;5024195;28;20234;-58
2021/08/10 03:19:13;;;;;;;25.50;22.73;;;;;;;22.47;81.06;99724.31;5019191;28;20037;-58
2021/08/10 03:22:00;;;;;;;26.73;22.00;;;;;;;22.84;80.37;99771.88;5023571;28;20022;-58
2021/08/10 03:24:47;;;;;;;24.10;21.42;;;;;;;22.85;80.86;99778.84;5020283;28;20026;-58
2021/08/10 03:27:34;;;;;;;23.52;20.77;;;;;;;22.87;80.56;99767.22;5023362;28;20332;-58
2021/08/10 03:30:20;;;;;;;25.95;21.10;;;;;;;22.84;80.73;99769.22;5023886;28;20076;-58
2021/08/10 03:33:07;;;;;;;23.73;20.77;;;;;;;22.88;80.05;99778.63;5016718;28;20021;-58
2021/08/10 03:35:53;;;;;;;23.85;19.65;;;;;;;22.86;80.35;99784.03;5021198;28;20079;-57
2021/08/10 03:38:40;;;;;;;24.33;20.67;;;;;;;22.86;80.14;99777.88;5023289;28;20018;-57
2021/08/10 03:41:29;;;;;;;23.25;19.63;;;;;;;22.90;79.85;99784.63;5023421;28;20225;-57
2021/08/10 03:44:16;;;;;;;22.88;18.95;;;;;;;22.91;79.71;99787.16;5022919;28;20030;-57
2021/08/10 03:47:02;;;;;;;22.10;18.95;;;;;;;22.93;79.62;99787.91;5024672;28;20026;-57
2021/08/10 03:49:51;;;;;;;27.23;19.30;;;;;;;22.73;79.17;99727.72;5023019;28;20394;-57
2021/08/10 03:52:37;;;;;;;22.23;19.35;;;;;;;23.02;78.87;99775.00;5022962;28;20327;-57
2021/08/10 03:55:23;;;;;;;22.60;20.23;;;;;;;23.04;79.29;99778.34;5023974;28;20244;-58
2021/08/10 03:58:09;;;;;;;21.73;18.90;;;;;;;22.97;80.06;99782.41;5023426;28;20018;-57
2021/08/10 04:00:55;;;;;;;22.08;19.60;;;;;;;23.07;79.78;99771.06;5022159;28;20076;-58
2021/08/10 04:03:43;;;;;;;25.13;18.35;;;;;;;23.11;79.42;99771.72;5022595;28;20028;-58
2021/08/10 04:06:32;;;;;;;21.30;17.98;;;;;;;22.89;78.91;99730.97;5022335;28;20034;-58
2021/08/10 04:09:18;;;;;;;22.42;18.02;;;;;;;23.19;79.07;99774.66;5022778;28;20084;-58
2021/08/10 04:12:06;;;;;;;23.20;18.30;;;;;;;23.19;79.33;99771.16;5021746;28;20052;-58
2021/08/10 04:14:52;;;;;;;21.10;18.77;;;;;;;23.24;79.22;99764.59;5022551;28;20073;-59
2021/08/10 04:17:39;;;;;;;20.92;18.92;;;;;;;23.21;79.45;99767.44;5023596;28;20101;-58
2021/08/10 04:20:25;;;;;;;27.50;19.77;;;;;;;23.15;79.31;99772.34;5023207;28;20153;-57
2021/08/10 04:23:11;;;;;;;23.48;21.00;;;;;;;23.26;79.04;99762.66;5023270;28;20200;-58
2021/08/10 04:25:57;;;;;;;25.90;19.13;;;;;;;23.34;78.72;99759.44;5021831;28;20026;-59
2021/08/10 04:28:43;;;;;;;21.17;18.92;;;;;;;23.38;78.25;99760.09;5022118;28;20362;-58
2021/08/10 04:31:29;;;;;;;25.73;18.75;;;;;;;23.44;78.50;99759.63;5023611;28;20223;-58
2021/08/10 04:34:15;;;;;;;25.10;18.92;;;;;;;23.43;78.37;99765.88;5021464;28;20034;-58
2021/08/10 04:37:01;;;;;;;22.60;19.80;;;;;;;23.46;78.32;99770.06;5021930;28;20021;-58
2021/08/10 04:39:47;;;;;;;22.52;18.77;;;;;;;23.55;77.64;99762.31;5022104;28;20250;-59
2021/08/10 04:42:36;;;;;;;23.73;19.20;;;;;;;23.61;77.51;99761.00;5021730;28;20041;-58
2021/08/10 04:45:22;;;;;;;26.10;19.90;;;;;;;23.68;77.01;99753.47;5021952;28;20080;-58
2021/08/10 04:48:08;;;;;;;21.25;18.95;;;;;;;23.75;77.15;99758.16;5021348;28;20040;-58
2021/08/10 04:50:54;;;;;;;22.75;20.25;;;;;;;23.75;77.24;99755.53;5022082;28;20041;-58
2021/08/10 04:53:41;;;;;;;21.50;18.83;;;;;;;23.60;77.15;99722.28;5021940;28;20060;-59
2021/08/10 04:56:27;;;;;;;25.40;20.75;;;;;;;23.88;76.76;99749.34;5022537;28;20048;-60
2021/08/10 04:59:13;;;;;;;24.85;18.63;;;;;;;23.95;76.55;99745.28;5021945;28;20029;-59
2021/08/10 05:01:59;;;;;;;19.70;17.67;;;;;;;24.09;75.61;99744.22;5021375;28;20021;-59
2021/08/10 05:04:45;;;;;;;27.67;20.13;;;;;;;24.20;75.02;99735.44;5013786;28;20089;-59
2021/08/10 05:07:31;;;;;;;22.50;17.95;;;;;;;24.51;74.17;99739.16;5021910;28;20029;-58
2021/08/10 05:10:17;;;;;;;23.15;17.58;;;;;;;24.94;73.46;99732.25;5022128;28;20306;-59
2021/08/10 05:13:03;;;;;;;21.13;17.13;;;;;;;25.37;72.20;99725.28;5021384;28;20037;-60
2021/08/10 05:15:49;;;;;;;21.25;16.95;;;;;;;25.60;69.56;99716.25;5022241;28;20213;-59
2021/08/10 05:18:35;;;;;;;24.10;17.50;;;;;;;25.80;68.65;99727.84;5022029;28;20383;-59
2021/08/10 05:21:20;;;;;;;18.92;14.90;;;;;;;26.03;68.87;99726.91;5021520;28;20034;-59
2021/08/10 05:24:07;;;;;;;20.95;16.48;;;;;;;25.92;68.29;99725.13;5020785;28;20025;-58
2021/08/10 05:26:52;;;;;;;21.17;16.00;;;;;;;25.81;68.41;99726.88;5022423;28;20042;-58
2021/08/10 05:29:38;;;;;;;19.02;15.00;;;;;;;25.77;68.60;99722.81;5021258;28;20049;-58
2021/08/10 05:32:24;;;;;;;20.08;16.52;;;;;;;25.57;66.90;99721.84;5021279;28;20041;-59
2021/08/10 05:35:10;;;;;;;23.38;17.63;;;;;;;25.52;66.63;99721.38;5021668;28;20350;-59
2021/08/10 05:37:56;;;;;;;22.33;16.63;;;;;;;25.59;66.10;99717.22;5021380;28;20111;-59
2021/08/10 05:40:42;;;;;;;19.15;15.13;;;;;;;25.70;65.40;99708.38;5021233;28;20048;-59
2021/08/10 05:43:28;;;;;;;19.00;15.63;;;;;;;25.88;66.22;99715.72;5021602;28;20025;-59
2021/08/10 05:46:14;;;;;;;19.63;16.70;;;;;;;25.84;65.76;99712.50;5017013;28;20037;-59
2021/08/10 05:49:00;;;;;;;20.58;15.63;;;;;;;25.79;66.40;99714.72;5020292;28;20026;-59
2021/08/10 05:51:46;;;;;;;21.23;16.05;;;;;;;25.89;66.28;99704.16;5020935;28;20034;-59
2021/08/10 05:54:32;;;;;;;29.17;24.02;;;;;;;25.97;65.53;99707.84;5021359;28;20222;-58
2021/08/10 05:57:18;;;;;;;18.50;16.17;;;;;;;26.09;64.79;99708.59;5021060;28;20864;-58
2021/08/10 06:00:04;;;;;;;31.63;27.60;;;;;;;26.25;65.17;99704.63;5018916;28;20036;-58
2021/08/10 06:02:50;;;;;;;19.25;16.63;;;;;;;26.34;65.14;99702.03;5021168;28;20022;-58
2021/08/10 06:05:36;;;;;;;18.55;13.98;;;;;;;26.13;63.14;99704.72;5012196;28;20112;-59
2021/08/10 06:08:22;;;;;;;21.33;14.05;;;;;;;26.41;63.39;99697.03;5021140;28;20041;-58
2021/08/10 06:11:08;;;;;;;18.90;14.07;;;;;;;26.35;62.78;99705.50;5021447;28;20034;-58
2021/08/10 06:13:54;;;;;;;16.30;11.80;;;;;;;26.41;61.50;99707.66;5020967;28;20589;-59
2021/08/10 06:16:39;;;;;;;19.58;12.57;;;;;;;26.43;61.04;99702.19;5024826;28;20341;-58
2021/08/10 06:19:25;;;;;;;16.45;11.77;;;;;;;26.48;61.16;99705.28;5024895;28;20026;-59
2021/08/10 06:22:12;;;;;;;16.08;11.85;;;;;;;26.20;60.22;99707.69;5024779;28;20038;-59
2021/08/10 06:24:58;;;;;;;13.25;11.50;;;;;;;26.10;61.51;99706.81;5014659;28;20022;-59
2021/08/10 06:27:44;;;;;;;19.52;12.30;;;;;;;26.27;61.70;99705.34;5024228;28;20061;-59
2021/08/10 06:30:30;;;;;;;19.77;11.93;;;;;;;26.41;62.19;99707.66;5023911;28;20037;-59
2021/08/10 06:33:16;;;;;;;17.05;11.88;;;;;;;26.49;62.88;99710.47;5024272;28;20249;-58
2021/08/10 06:36:02;;;;;;;14.82;12.25;;;;;;;26.33;60.83;99710.94;5024758;28;20231;-58
2021/08/10 06:38:48;;;;;;;16.05;12.55;;;;;;;26.37;60.89;99710.72;5024245;28;20030;-59
2021/08/10 06:41:34;;;;;;;22.83;13.32;;;;;;;26.45;60.03;99706.41;5024891;28;20030;-58
2021/08/10 06:44:20;;;;;;;18.48;11.90;;;;;;;26.58;60.78;99710.63;5023915;28;20334;-60
2021/08/10 06:47:06;;;;;;;19.13;15.43;;;;;;;26.69;60.29;99702.56;5024118;28;20338;-61
2021/08/10 06:49:52;;;;;;;19.35;13.18;;;;;;;26.82;59.82;99708.47;5024155;28;20037;-61
2021/08/10 06:52:38;;;;;;;17.33;12.68;;;;;;;26.94;60.05;99698.56;5023681;28;20337;-60
2021/08/10 06:55:23;;;;;;;16.38;12.75;;;;;;;27.14;58.66;99704.72;5025240;28;20231;-57
2021/08/10 06:58:10;;;;;;;14.07;12.55;;;;;;;27.15;60.41;99703.75;5024433;28;20120;-60
2021/08/10 07:00:56;;;;;;;17.35;12.50;;;;;;;27.16;59.21;99694.81;5024330;28;20045;-61
2021/08/10 07:03:42;;;;;;;18.33;13.43;;;;;;;27.20;59.75;99696.19;5023756;28;20037;-61
2021/08/10 07:06:30;;;;;;;17.80;11.50;;;;;;;27.23;59.49;99703.03;5023995;28;20034;-56
2021/08/10 07:09:16;;;;;;;16.95;13.27;;;;;;;27.29;60.22;99704.31;5023435;28;20349;-58
2021/08/10 07:12:03;;;;;;;17.17;13.05;;;;;;;27.40;59.76;99692.72;5022748;28;20022;-57
2021/08/10 07:14:50;;;;;;;18.65;10.75;;;;;;;27.47;58.19;99689.34;5023014;28;20048;-58
2021/08/10 07:17:35;;;;;;;17.35;10.63;;;;;;;27.54;56.77;99697.59;5020587;28;20025;-58
2021/08/10 07:20:21;;;;;;;16.70;10.75;;;;;;;27.74;55.74;99701.06;5023141;28;20028;-58
2021/08/10 07:23:07;;;;;;;17.70;10.73;;;;;;;27.75;55.94;99696.56;5023842;28;20022;-57
2021/08/10 07:25:53;;;;;;;15.63;10.82;;;;;;;27.49;53.89;99695.38;5022242;28;20030;-57
2021/08/10 07:28:39;;;;;;;15.43;10.73;;;;;;;27.64;54.41;99694.94;5023505;28;20184;-59
2021/08/10 07:31:25;;;;;;;14.32;9.35;;;;;;;27.49;53.09;99691.84;5023176;28;20026;-59
2021/08/10 07:34:11;;;;;;;16.02;9.77;;;;;;;27.47;53.97;99696.50;5010536;28;20106;-59
2021/08/10 07:36:57;;;;;;;12.45;9.27;;;;;;;27.81;52.64;99701.34;5023476;28;20029;-58
2021/08/10 07:39:43;;;;;;;15.00;9.20;;;;;;;27.59;52.41;99700.66;5023966;28;20278;-57
2021/08/10 07:42:29;;;;;;;13.48;9.68;;;;;;;27.76;53.00;99706.25;5022215;28;20072;-59
2021/08/10 07:45:15;;;;;;;13.82;9.55;;;;;;;27.77;53.86;99705.28;5016186;28;20040;-57
2021/08/10 07:48:03;;;;;;;13.77;9.75;;;;;;;27.61;53.83;99698.72;5023097;28;20056;-57
2021/08/10 07:50:48;;;;;;;14.07;9.32;;;;;;;27.83;54.08;99691.38;5023597;28;20112;-58
2021/08/10 07:53:34;;;;;;;15.40;9.93;;;;;;;27.71;53.75;99691.53;5023350;28;20116;-56
2021/08/10 07:56:20;;;;;;;17.42;10.48;;;;;;;27.75;54.70;99688.59;5022501;28;20022;-56
2021/08/10 07:59:06;;;;;;;13.98;9.98;;;;;;;27.67;55.14;99689.31;5022939;28;20064;-57
2021/08/10 08:01:52;;;;;;;13.52;9.90;;;;;;;27.92;55.27;99690.53;5022260;28;20097;-58
2021/08/10 08:04:38;;;;;;;23.70;10.63;;;;;;;27.94;54.73;99690.38;5022844;28;20022;-59
2021/08/10 08:07:24;;;;;;;14.82;10.10;;;;;;;27.91;53.72;99683.50;5022719;28;20089;-58
2021/08/10 08:10:11;;;;;;;12.77;9.80;;;;;;;28.06;53.96;99681.22;5022520;28;20030;-59
2021/08/10 08:12:57;;;;;;;21.42;9.80;;;;;;;28.01;54.02;99678.19;5023772;28;20037;-58
2021/08/10 08:15:43;;;;;;;13.65;9.77;;;;;;;28.01;53.17;99672.88;5022377;28;20147;-59
2021/08/10 08:18:29;;;;;;;16.63;9.82;;;;;;;28.05;53.11;99659.09;5021411;28;20021;-58
2021/08/10 08:21:15;;;;;;;18.90;10.55;;;;;;;28.20;53.82;99672.75;5022243;28;20025;-57
2021/08/10 08:24:00;;;;;;;14.82;10.30;;;;;;;28.37;53.87;99673.81;5022971;28;20033;-58
2021/08/10 08:26:46;;;;;;;17.63;9.38;;;;;;;28.48;54.03;99670.13;5022894;28;20028;-58
2021/08/10 08:29:32;;;;;;;16.40;10.52;;;;;;;28.34;52.14;99674.09;5009395;28;20030;-59
2021/08/10 08:32:18;;;;;;;11.73;9.13;;;;;;;28.08;52.37;99676.63;5015473;28;20037;-57
2021/08/10 08:35:05;;;;;;;12.57;9.15;;;;;;;28.26;51.84;99665.19;5020775;28;20330;-60
2021/08/10 08:37:51;;;;;;;13.73;9.63;;;;;;;28.25;52.29;99664.34;5020840;28;20255;-57
2021/08/10 08:40:41;;;;;;;15.88;10.10;;;;;;;28.42;52.38;99655.56;5022205;28;20029;-59
2021/08/10 08:43:27;;;;;;;11.43;9.07;;;;;;;28.23;51.62;99645.84;5022777;28;20061;-59
2021/08/10 08:46:15;;;;;;;52.42;37.15;;;;;;;28.47;51.51;99646.28;5022268;28;20335;-59
2021/08/10 08:49:02;;;;;;;16.38;8.98;;;;;;;28.35;50.43;99653.66;5020524;28;20030;-59
2021/08/10 08:51:48;;;;;;;12.25;8.88;;;;;;;28.21;50.21;99650.47;5023766;28;20042;-58
2021/08/10 08:54:34;;;;;;;12.23;7.93;;;;;;;28.48;50.02;99655.97;5021989;28;20105;-60
2021/08/10 08:57:20;;;;;;;12.43;8.45;;;;;;;28.63;50.26;99650.97;5022586;28;20097;-58
2021/08/10 09:00:07;;;;;;;16.95;8.32;;;;;;;28.36;49.64;99661.50;5021498;28;20025;-58
2021/08/10 09:02:53;;;;;;;11.13;7.88;;;;;;;28.49;50.23;99655.81;5021227;28;20370;-57
2021/08/10 09:05:44;;;;;;;12.75;8.80;;;;;;;28.52;50.16;99655.50;5019235;28;20279;-57
2021/08/10 09:08:42;;;;;;;12.38;8.48;;;;;;;28.58;50.19;99654.06;5022702;28;20072;-58
2021/08/10 09:11:28;;;;;;;13.15;8.13;;;;;;;28.70;50.21;99655.56;5015463;28;20029;-57
2021/08/10 09:14:13;;;;;;;18.17;8.65;;;;;;;28.88;50.82;99660.91;5021232;28;20357;-57
2021/08/10 09:17:11;;;;;;;10.45;8.35;;;;;;;28.62;49.61;99652.81;5020473;28;20013;-57
2021/08/10 09:20:01;;;;;;;11.55;8.43;;;;;;;28.29;50.51;99623.13;5021818;28;20022;-57
2021/08/10 09:22:52;;;;;;;11.40;9.00;;;;;;;28.52;51.58;99633.34;5020491;28;20273;-57
2021/08/10 09:25:38;;;;;;;13.87;8.77;;;;;;;28.80;51.73;99658.13;5022275;28;20204;-56
2021/08/10 09:28:32;;;;;;;11.75;9.65;;;;;;;28.82;52.09;99665.97;5016216;28;20270;-57
2021/08/10 09:31:37;;;;;;;13.52;9.70;;;;;;;28.63;52.00;99657.13;5003627;28;20227;-57
2021/08/10 09:34:27;;;;;;;12.73;9.32;;;;;;;28.49;51.96;99617.66;5006601;28;20397;-57
2021/08/10 09:37:16;;;;;;;11.95;9.45;;;;;;;28.93;52.17;99655.94;5018724;28;20056;-58
2021/08/10 09:40:27;;;;;;;16.17;9.32;;;;;;;28.59;51.36;99651.25;5013873;28;20080;-57
2021/08/10 09:43:26;;;;;;;12.35;8.40;;;;;;;28.44;51.15;99617.28;5013747;28;20034;-57
2021/08/10 09:46:24;;;;;;;16.80;9.70;;;;;;;28.75;51.59;99655.09;5016638;28;20045;-57
2021/08/10 09:49:10;;;;;;;14.32;9.23;;;;;;;28.59;51.30;99666.41;5020623;28;20101;-57
2021/08/10 09:51:56;;;;;;;14.27;9.35;;;;;;;28.52;51.89;99662.66;5006844;28;20026;-57
2021/08/10 09:54:43;;;;;;;12.35;8.70;;;;;;;28.20;52.11;99662.09;5006343;28;20270;-58
2021/08/10 09:57:29;;;;;;;17.13;9.57;;;;;;;28.37;52.25;99663.16;5012829;28;20087;-58
2021/08/10 10:00:39;;;;;;;12.63;9.68;;;;;;;28.55;52.87;99657.03;5026972;28;20033;-57
2021/08/10 10:03:26;;;;;;;15.75;10.93;;;;;;;28.46;53.19;99649.94;5011080;28;20061;-57
2021/08/10 10:06:12;;;;;;;20.40;11.40;;;;;;;28.45;53.81;99654.44;5025668;28;20030;-57
2021/08/10 10:08:58;;;;;;;13.63;9.77;;;;;;;28.46;53.25;99653.44;5025339;28;20037;-57
2021/08/10 10:11:47;;;;;;;14.68;10.57;;;;;;;28.53;53.17;99635.00;5023423;28;20030;-57
2021/08/10 10:14:33;;;;;;;14.07;9.48;;;;;;;28.61;54.11;99643.09;5025756;28;20053;-58
2021/08/10 10:17:19;;;;;;;13.50;10.20;;;;;;;28.61;53.53;99639.59;5026706;28;20022;-57
2021/08/10 10:20:06;;;;;;;15.43;9.75;;;;;;;28.75;54.19;99647.13;5024832;28;20018;-57
2021/08/10 10:22:52;;;;;;;14.82;10.10;;;;;;;28.77;54.02;99646.97;5024269;28;20034;-57
2021/08/10 10:25:38;;;;;;;14.63;9.73;;;;;;;28.56;52.72;99653.38;5024781;28;20251;-57
2021/08/10 10:28:24;;;;;;;13.73;9.85;;;;;;;28.65;52.89;99646.34;5022759;28;20034;-56
2021/08/10 10:31:10;;;;;;;13.30;9.27;;;;;;;28.53;52.89;99651.00;5019749;28;20061;-57
2021/08/10 10:33:59;;;;;;;13.95;8.75;;;;;;;28.37;51.86;99651.66;5024163;28;20054;-57
2021/08/10 10:36:47;;;;;;;14.88;8.55;;;;;;;28.44;53.32;99658.06;5015094;28;20037;-57
2021/08/10 10:39:36;;;;;;;17.30;9.93;;;;;;;28.04;52.69;99644.09;5009122;28;20034;-57
2021/08/10 10:42:23;;;;;;;13.57;9.45;;;;;;;28.12;52.86;99669.16;5004937;28;20045;-59
2021/08/10 10:45:34;;;;;;;15.55;8.70;;;;;;;28.02;53.00;99626.59;5024114;28;20025;-59
2021/08/10 10:48:43;;;;;;;16.23;9.10;;;;;;;27.65;53.34;99641.56;5023285;28;20092;-58
2021/08/10 10:51:33;;;;;;;17.80;9.70;;;;;;;27.88;54.95;99675.81;5024863;28;20104;-59
2021/08/10 10:54:27;;;;;;;16.85;9.02;;;;;;;27.49;56.56;99657.28;5023914;28;20353;-57
2021/08/10 10:57:31;;;;;;;15.90;9.38;;;;;;;27.48;55.26;99695.53;5024384;28;20262;-59
2021/08/10 11:00:21;;;;;;;12.40;9.20;;;;;;;27.46;56.84;99695.63;5024358;28;20029;-59
2021/08/10 11:03:13;;;;;;;13.82;9.73;;;;;;;27.46;56.79;99657.56;5022916;28;20033;-59
2021/08/10 11:06:27;;;;;;;12.57;9.38;;;;;;;27.76;58.24;99696.44;5008372;28;20026;-58
2021/08/10 11:09:38;;;;;;;14.27;9.05;;;;;;;27.72;57.37;99695.06;5014253;28;20029;-58
2021/08/10 11:12:42;;;;;;;11.50;9.05;;;;;;;27.64;56.50;99686.94;5023635;28;20025;-59
2021/08/10 11:15:46;;;;;;;20.42;10.02;;;;;;;27.61;57.93;99698.72;5011588;28;20042;-59
2021/08/10 11:18:33;;;;;;;15.13;9.98;;;;;;;27.50;57.82;99680.25;5009611;28;20097;-58
2021/08/10 11:21:21;;;;;;;16.17;10.35;;;;;;;27.55;57.92;99678.00;5014665;28;20034;-58
2021/08/10 11:24:33;;;;;;;16.95;9.52;;;;;;;27.65;58.58;99694.78;5013848;28;20223;-59
2021/08/10 11:27:31;;;;;;;;;;;;;;;27.56;57.23;99679.66;5016745;28;20026;-58
2021/08/10 11:30:20;;;;;;;13.95;8.55;;;;;;;27.69;57.40;99685.53;5010105;28;20202;-57
2021/08/10 11:33:06;;;;;;;17.17;10.45;;;;;;;27.59;56.32;99684.69;5006314;28;20065;-59
2021/08/10 11:35:52;;;;;;;14.38;9.98;;;;;;;27.52;57.90;99681.78;5012128;28;20037;-57
2021/08/10 11:38:43;;;;;;;14.00;9.70;;;;;;;27.46;57.50;99687.66;5014227;28;20018;-57
2021/08/10 11:41:39;;;;;;;15.40;9.95;;;;;;;27.52;57.40;99696.88;5004603;28;20038;-57
2021/08/10 11:44:25;;;;;;;13.50;10.13;;;;;;;27.55;57.88;99686.81;5014997;28;20030;-59
2021/08/10 11:47:13;;;;;;;13.10;10.30;;;;;;;27.47;57.59;99685.84;5008495;28;20033;-58
2021/08/10 11:49:59;;;;;;;14.52;9.63;;;;;;;27.54;57.67;99677.16;5009919;28;20026;-58
2021/08/10 11:52:45;;;;;;;12.85;9.45;;;;;;;27.66;57.70;99682.31;5020485;28;20029;-59
2021/08/10 11:55:34;;;;;;;13.65;9.27;;;;;;;27.65;57.24;99681.47;5004452;28;20267;-58
2021/08/10 11:58:20;;;;;;;11.30;9.30;;;;;;;27.59;57.41;99679.38;5003865;28;20023;-59
2021/08/10 12:01:06;;;;;;;12.93;9.93;;;;;;;27.60;57.94;99675.75;5016791;28;20222;-59
2021/08/10 12:03:52;;;;;;;13.80;9.93;;;;;;;27.49;57.46;99673.25;5014068;28;20027;-59
2021/08/10 12:06:40;;;;;;;14.55;9.13;;;;;;;27.61;58.09;99671.28;5020421;28;20093;-58
2021/08/10 12:09:26;;;;;;;15.23;9.38;;;;;;;27.63;57.28;99679.94;5022991;28;20072;-58
2021/08/10 12:12:12;;;;;;;14.98;8.93;;;;;;;27.63;57.45;99674.63;5024499;28;20327;-58
2021/08/10 12:14:58;;;;;;;19.58;10.30;;;;;;;27.63;58.29;99674.63;5023048;28;20077;-59
2021/08/10 12:17:53;;;;;;;15.35;9.93;;;;;;;27.57;58.05;99675.19;5023353;28;20131;-58
2021/08/10 12:20:39;;;;;;;13.57;9.00;;;;;;;27.63;57.80;99680.78;5023665;28;20025;-58
2021/08/10 12:23:28;;;;;;;15.13;9.50;;;;;;;27.31;57.05;99639.34;5019486;28;20060;-57
2021/08/10 12:26:20;;;;;;;13.48;9.32;;;;;;;27.48;57.68;99674.25;5008308;28;20026;-58
2021/08/10 12:29:07;;;;;;;16.95;9.27;;;;;;;27.51;58.36;99684.59;5016909;28;20037;-58
2021/08/10 12:31:55;;;;;;;10.38;9.23;;;;;;;27.41;58.77;99689.06;5010842;28;20030;-58
2021/08/10 12:34:41;;;;;;;10.43;8.73;;;;;;;27.39;59.48;99681.22;5019585;28;20032;-57
2021/08/10 12:37:32;;;;;;;17.60;12.45;;;;;;;27.50;59.57;99696.22;5020486;28;20107;-58
2021/08/10 12:40:18;;;;;;;13.57;10.38;;;;;;;27.50;59.14;99688.22;5021366;28;20034;-57
2021/08/10 12:43:04;;;;;;;15.35;9.45;;;;;;;27.39;59.39;99686.53;5014795;28;20041;-58
2021/08/10 12:45:51;;;;;;;16.00;9.80;;;;;;;27.41;59.26;99689.06;5018282;28;20543;-57
2021/08/10 12:48:36;;;;;;;14.65;9.15;;;;;;;27.37;59.46;99694.66;5019999;28;20364;-57
2021/08/10 12:51:22;;;;;;;13.50;9.40;;;;;;;27.31;59.75;99697.03;5011972;28;20100;-58
2021/08/10 12:54:11;;;;;;;10.10;8.75;;;;;;;27.26;59.76;99685.97;5017830;28;20041;-58
2021/08/10 12:57:00;;;;;;;14.43;9.38;;;;;;;27.30;59.59;99695.34;5020246;28;20018;-58